Anthem, Arizona
Current Conditions -  °F | °C
As of 9:53 PM on Saturday 22 Nov 2014 (Local Time) from KDVT Reporting Station
Clear Clear  
Wind Chill: 52°   Ceiling: Unl
Heat Index: 52°   Visibility: 10mi
Dew Point: 29°   Wind: 0mph
Humidity: 41%   Direction: NA
Pressure: 29.95"   Gusts: NA
Location:  33.8348°N, 112.071°W
Report Text: KDVT 230453Z AUTO 00000KT 10SM CLR 11/M02 A2995 RMK AO2 SLP132 T01111017
Loading
Personal Weather Stations






























Interactive Weather Map New forecast layout! Learn more

10-Day Weather Forecast

Advertisements
Track Severe Weather on mobile